27 de setembro de 2022

Hora Código Clima Temp. Visibilidade Tecto Vento METAR/SPECI
21:17
V
14 °C 9 mi 6.000 ft 310° 310° 8 kt METAR CYTZ 280117Z AUTO 31008KT 9SM FEW027 BKN060 OVC072 14/12 A2991 RMK SLP131
21:00
V
13 °C 9 mi 6.600 ft 310° 310° 9 kt METAR CYTZ 280100Z AUTO 31009KT 9SM -RA FEW047 OVC066 13/12 A2990 RMK SLP129
20:00
V
13 °C 7 mi 4.900 ft 340° 340° 3 kt METAR CYTZ 280000Z AUTO 34003KT 320V040 7SM -RA FEW015 BKN049 OVC066 13/11 A2989 RMK PCPN 1.2MM PAST HR SLP124
19:00
V
12 °C 9 mi 5.000 ft 280° 280° 5 kt METAR CYTZ 272300Z AUTO 28005KT 230V310 9SM -RA SCT042 BKN050 OVC066 12/12 A2986 RMK SLP114
18:02
V
12 °C 9 mi 7.100 ft 290° 290° 6 kt METAR CYTZ 272202Z AUTO 29006KT 240V310 9SM -RA FEW028 OVC071 12/11 A2984 RMK SLP107
18:00
V
12 °C 9 mi 6.600 ft 290° 290° 6 kt METAR CYTZ 272200Z AUTO 29006KT 240V310 9SM FEW028 OVC066 12/11 A2984 RMK SLP107
17:00
V
13 °C 9 mi 5.500 ft 240° 240° 6 kt METAR CYTZ 272100Z AUTO 24006KT 200V340 9SM FEW044 OVC055 13/10 A2982 RMK SLP100
16:51
V
14 °C 9 mi 5.500 ft 320° 320° 7 kt METAR CYTZ 272051Z AUTO 32007KT 280V030 9SM SCT044 OVC055 14/11 A2981 RMK SLP099 DENSITY ALT 300FT
16:30
V
14 °C 9 mi 3.900 ft 330° 330° 8 - 18 kt METAR CYTZ 272030Z AUTO 33008G18KT 9SM -RA FEW030 BKN039 OVC049 14/11 A2981 RMK SLP096 DENSITY ALT 300FT
16:27
V
14 °C 9 mi 3.700 ft 330° 330° 11 - 20 kt METAR CYTZ 272027Z AUTO 33011G20KT 9SM -TSRA SCT030 BKN037 OVC049 14/11 A2981 RMK SLP096 DENSITY ALT 300FT
16:14
V
13 °C 9 mi 3.900 ft 330° 330° 11 - 16 kt METAR CYTZ 272014Z AUTO 33011G16KT 240V030 9SM TS FEW023 SCT030 OVC039 13/11 A2980 RMK SLP095
16:00
V
13 °C 9 mi 4.000 ft 210° 210° 9 - 15 kt METAR CYTZ 272000Z AUTO 21009G15KT 9SM FEW031 BKN040 OVC066 13/11 A2979 RMK SLP091
15:40
V
13 °C 9 mi 6.600 ft 230° 230° 4 kt METAR CYTZ 271940Z AUTO 23004KT 190V290 9SM SCT037 OVC066 13/11 A2978 RMK SLP088 DENSITY ALT 300FT
15:00
V
13 °C 9 mi 8.000 ft 190° 190° 7 kt METAR CYTZ 271900Z AUTO 19007KT 9SM -RA SCT060 OVC080 13/11 A2978 RMK SLP086
14:53
V
13 °C 9 mi 7.900 ft 200° 200° 9 kt METAR CYTZ 271853Z AUTO 20009KT 9SM -RA SCT060 OVC079 13/10 A2977 RMK SLP085 DENSITY ALT 300FT
14:00
V
14 °C 9 mi 8.600 ft 210° 210° 8 - 16 kt METAR CYTZ 271800Z AUTO 21008G16KT 9SM OVC086 14/11 A2976 RMK SLP082 DENSITY ALT 400FT
13:00
V
16 °C 9 mi 7.600 ft 240° 240° 6 kt METAR CYTZ 271700Z AUTO 24006KT 9SM FEW028 OVC076 16/11 A2976 RMK SLP081 DENSITY ALT 600FT
12:00
M
14 °C 9 mi 2.600 ft 250° 250° 6 kt METAR CYTZ 271600Z AUTO 25006KT 230V300 9SM BKN026 BKN036 BKN043 OVC076 14/11 A2975 RMK SLP077 DENSITY ALT 400FT
11:00
V
13 °C 9 mi 7.100 ft 250° 250° 8 kt METAR CYTZ 271500Z AUTO 25008KT 230V310 9SM OVC071 13/11 A2974 RMK SLP075 DENSITY ALT 300FT
10:21
V
12 °C 9 mi 7.100 ft 230° 230° 5 kt METAR CYTZ 271421Z AUTO 23005KT 200V280 9SM OVC071 12/11 A2973 RMK SLP071
10:00
V
12 °C 9 mi 7.100 ft 250° 250° 5 kt METAR CYTZ 271400Z AUTO 25005KT 210V300 9SM -RA OVC071 12/11 A2972 RMK SLP068
09:53
V
12 °C 9 mi 7.100 ft 270° 270° 6 kt METAR CYTZ 271353Z AUTO 27006KT 220V290 9SM -RA OVC071 12/10 A2972 RMK SLP067
09:00
V
12 °C 9 mi 8.100 ft 260° 260° 6 kt METAR CYTZ 271300Z AUTO 26006KT 240V300 9SM BKN081 OVC100 12/10 A2970 RMK SLP062 DENSITY ALT 300FT
08:00
V
12 °C 9 mi 8.600 ft 270° 270° 8 kt METAR CYTZ 271200Z AUTO 27008KT 9SM OVC086 12/10 A2969 RMK SLP057 DENSITY ALT 300FT
07:00
V
11 °C 9 mi 8.600 ft 270° 270° 6 kt METAR CYTZ 271100Z AUTO 27006KT 230V300 9SM OVC086 11/10 A2968 RMK SLP052
06:00
V
11 °C 9 mi 8.100 ft 290° 290° 7 kt METAR CYTZ 271000Z AUTO 29007KT 9SM OVC081 11/10 A2965 RMK SLP045
05:00
V
11 °C 9 mi 7.600 ft 250° 250° 7 kt METAR CYTZ 270900Z AUTO 25007KT 210V280 9SM BKN076 BKN110 11/10 A2964 RMK SLP041
04:00
V
12 °C 9 mi 12.000 ft 270° 270° 9 - 15 kt METAR CYTZ 270800Z AUTO 27009G15KT 9SM SCT071 SCT100 BKN120 BKN140 12/10 A2963 RMK SLP037 DENSITY ALT 300FT
03:00
V
13 °C 9 mi 15.000 ft 260° 260° 9 - 15 kt METAR CYTZ 270700Z AUTO 26009G15KT 9SM FEW081 SCT120 BKN150 13/11 A2962 RMK SLP034 DENSITY ALT 400FT
02:00
V
13 °C 9 mi 12.000 ft 280° 280° 17 kt METAR CYTZ 270600Z AUTO 28017KT 9SM FEW049 BKN120 13/10 A2962 RMK SLP031 DENSITY ALT 500FT
01:00
V
13 °C 9 mi 12.000 ft 280° 280° 14 - 21 kt METAR CYTZ 270500Z AUTO 28014G21KT 9SM BKN120 BKN160 13/10 A2960 RMK SLP026 DENSITY ALT 500FT
00:00
V
14 °C 9 mi 4.300 ft 280° 280° 15 - 20 kt METAR CYTZ 270400Z AUTO 28015G20KT 9SM BKN043 OVC071 14/11 A2959 RMK SLP021 DENSITY ALT 600FT

26 de setembro de 2022

Hora Código Clima Temp. Visibilidade Tecto Vento METAR/SPECI
23:18
V
14 °C 9 mi 3.800 ft 280° 280° 17 - 22 kt METAR CYTZ 270318Z AUTO 28017G22KT 9SM BKN038 BKN050 BKN071 OVC084 14/11 A2958 RMK SLP018 DENSITY ALT 600FT
23:00
V
14 °C 9 mi 8.100 ft 280° 280° 16 - 23 kt METAR CYTZ 270300Z AUTO 28016G23KT 9SM -RA SCT038 SCT050 OVC081 14/11 A2957 RMK SLP015 DENSITY ALT 600FT
22:17
V
14 °C 9 mi 8.800 ft 280° 280° 17 - 23 kt METAR CYTZ 270217Z AUTO 28017G23KT 9SM -RA FEW041 SCT066 BKN088 OVC120 14/11 A2956 RMK SLP011 DENSITY ALT 600FT
22:08
V
14 °C 9 mi 6.600 ft 260° 260° 18 - 27 kt METAR CYTZ 270208Z AUTO 26018G27KT 9SM SCT044 BKN066 BKN082 OVC110 14/11 A2955 RMK SLP009 DENSITY ALT 600FT
22:00
V
14 °C 9 mi 6.000 ft 270° 270° 20 - 27 kt METAR CYTZ 270200Z AUTO 27020G27KT 9SM -RA SCT041 OVC060 14/11 A2955 RMK SLP008 DENSITY ALT 600FT
21:58
V
14 °C 9 mi 6.600 ft 270° 270° 17 - 25 kt METAR CYTZ 270158Z AUTO 27017G25KT 9SM -RA SCT041 OVC066 14/11 A2955 RMK SLP009 DENSITY ALT 600FT
21:41
V
14 °C 9 mi 4.100 ft 270° 270° 19 - 25 kt METAR CYTZ 270141Z AUTO 27019G25KT 9SM BKN041 BKN060 BKN079 OVC094 14/11 A2954 RMK SLP007 DENSITY ALT 600FT
21:03
V
14 °C 9 mi 8.100 ft 260° 260° 18 - 26 kt METAR CYTZ 270103Z AUTO 26018G26KT 9SM -RA SCT060 BKN081 OVC097 14/11 A2953 RMK SLP003 DENSITY ALT 600FT
21:00
V
14 °C 9 mi 7.900 ft 260° 260° 17 - 26 kt METAR CYTZ 270100Z AUTO 26017G26KT 9SM SCT060 BKN079 OVC098 14/11 A2953 RMK SLP003 DENSITY ALT 600FT
20:57
V
14 °C 9 mi 7.700 ft 260° 260° 18 - 26 kt METAR CYTZ 270057Z AUTO 26018G26KT 9SM SCT060 BKN077 OVC096 14/11 A2953 RMK SLP002 DENSITY ALT 600FT
20:38
V
14 °C 9 mi 7.700 ft 260° 260° 18 - 27 kt METAR CYTZ 270038Z AUTO 26018G27KT 9SM -RA FEW066 BKN077 OVC099 14/11 A2953 RMK SLP001 DENSITY ALT 600FT
20:14
V
13 °C 9 mi 7.700 ft 240° 240° 16 kt METAR CYTZ 270014Z AUTO 24016KT 9SM SCT060 BKN077 OVC095 13/11 A2952 RMK SLP000 DENSITY ALT 600FT
20:00
V
13 °C 9 mi 6.000 ft 240° 240° 15 - 23 kt METAR CYTZ 270000Z AUTO 24015G23KT 9SM -RA BKN060 OVC078 13/11 A2952 RMK PCPN 1.5MM PAST HR SLP999 DENSITY ALT 600FT
19:00
V
14 °C 9 mi 7.600 ft 240° 240° 14 - 21 kt METAR CYTZ 262300Z AUTO 24014G21KT 9SM -RA FEW050 BKN076 OVC087 14/11 A2952 RMK SLP999 DENSITY ALT 700FT
18:59
V
14 °C 9 mi 7.600 ft 240° 240° 14 - 21 kt METAR CYTZ 262259Z AUTO 24014G21KT 9SM -RA FEW050 BKN076 OVC098 14/11 A2952 RMK SLP999 DENSITY ALT 700FT
18:54
V
14 °C 9 mi 8.200 ft 240° 240° 15 - 21 kt METAR CYTZ 262254Z AUTO 24015G21KT 9SM FEW050 BKN082 OVC100 14/11 A2952 RMK SLP999 DENSITY ALT 700FT
18:44
V
14 °C 9 mi 9.300 ft 240° 240° 16 kt METAR CYTZ 262244Z AUTO 24016KT 9SM -RA FEW050 OVC093 14/11 A2952 RMK SLP999 DENSITY ALT 700FT
18:03
V
14 °C 9 mi 7.600 ft 240° 240° 13 - 20 kt METAR CYTZ 262203Z AUTO 24013G20KT 9SM BKN076 OVC089 14/11 A2952 RMK SLP000 DENSITY ALT 700FT
18:00
V
14 °C 9 mi 7.600 ft 240° 240° 10 - 17 kt METAR CYTZ 262200Z AUTO 24010G17KT 9SM -RA FEW060 OVC076 14/11 A2952 RMK SLP000 DENSITY ALT 700FT
17:00
V
14 °C 9 mi 4.700 ft 290° 290° 14 - 19 kt METAR CYTZ 262100Z AUTO 29014G19KT 9SM -RA SCT036 BKN047 BKN055 OVC080 14/11 A2952 RMK SLP999 DENSITY ALT 600FT
16:36
V
13 °C 7 mi 4.600 ft 280° 280° 21 - 28 kt METAR CYTZ 262036Z AUTO 28021G28KT 7SM -RA FEW029 BKN046 BKN055 OVC071 13/10 A2952 RMK SLP998 DENSITY ALT 600FT
16:32
V
13 °C 8 mi 4.600 ft 260° 260° 18 - 33 kt METAR CYTZ 262032Z AUTO 26018G33KT 8SM +RA FEW029 BKN046 BKN060 OVC071 13/11 A2952 RMK SLP998 DENSITY ALT 600FT
16:20
V
15 °C 9 mi 5.500 ft 280° 280° 20 - 29 kt METAR CYTZ 262020Z AUTO 28020G29KT 9SM -RA FEW032 BKN055 OVC070 15/10 A2951 RMK SLP996 DENSITY ALT 800FT
16:13
V
15 °C 9 mi 5.500 ft 270° 270° 19 - 24 kt METAR CYTZ 262013Z AUTO 27019G24KT 9SM SCT032 SCT043 BKN055 OVC071 15/10 A2951 RMK SLP995 DENSITY ALT 900FT
16:01
V
15 °C 9 mi 3.200 ft 290° 290° 18 - 32 kt METAR CYTZ 262001Z AUTO 29018G32KT 230V310 9SM -RA BKN032 BKN042 OVC060 15/10 A2951 RMK SLP995 DENSITY ALT 900FT
16:00
V
15 °C 9 mi 3.200 ft 290° 290° 17 - 32 kt METAR CYTZ 262000Z AUTO 29017G32KT 230V310 9SM BKN032 BKN042 OVC055 15/10 A2951 RMK SLP995 DENSITY ALT 900FT
15:00
V
16 °C 9 mi 7.100 ft 240° 240° 16 kt METAR CYTZ 261900Z AUTO 24016KT 9SM BKN071 BKN100 16/10 A2950 RMK SLP991 DENSITY ALT 1000FT
14:00
V
17 °C 9 mi 4.700 ft 230° 230° 12 - 24 kt METAR CYTZ 261800Z AUTO 23012G24KT 9SM SCT038 BKN047 17/10 A2949 RMK SLP990 DENSITY ALT 1000FT
13:00
V
15 °C 9 mi 3.600 ft 230° 230° 13 - 20 kt METAR CYTZ 261700Z AUTO 23013G20KT 9SM BKN036 BKN060 OVC074 15/10 A2950 RMK SLP991 DENSITY ALT 900FT
12:00
V
16 °C 9 mi 3.300 ft 220° 220° 12 - 18 kt METAR CYTZ 261600Z AUTO 22012G18KT 9SM BKN033 BKN040 16/11 A2951 RMK SLP995 DENSITY ALT 900FT
11:00
V
14 °C 9 mi - 220° 220° 15 - 22 kt METAR CYTZ 261500Z AUTO 22015G22KT 9SM CLR 14/11 A2952 RMK SLP998 DENSITY ALT 700FT
10:00
V
14 °C 9 mi 8.100 ft 230° 230° 8 - 17 kt METAR CYTZ 261400Z AUTO 23008G17KT 9SM OVC081 14/10 A2952 RMK SLP998 DENSITY ALT 600FT
09:00
V
13 °C 9 mi 10.000 ft 250° 250° 10 - 18 kt METAR CYTZ 261300Z AUTO 25010G18KT 9SM BKN100 13/11 A2951 RMK SLP996 DENSITY ALT 600FT
08:00
V
12 °C 9 mi 13.000 ft 230° 230° 9 - 16 kt METAR CYTZ 261200Z AUTO 23009G16KT 9SM OVC130 12/10 A2951 RMK SLP996 DENSITY ALT 500FT
07:00
V
12 °C 9 mi - 260° 260° 10 kt METAR CYTZ 261100Z AUTO 26010KT 9SM CLR 12/10 A2951 RMK SLP996 DENSITY ALT 400FT
06:00
V
12 °C 9 mi - 240° 240° 12 - 20 kt METAR CYTZ 261000Z AUTO 24012G20KT 9SM CLR 12/10 A2951 RMK SLP995 DENSITY ALT 500FT
05:00
V
13 °C 9 mi - 250° 250° 11 - 19 kt METAR CYTZ 260900Z AUTO 25011G19KT 9SM SCT066 SCT100 13/10 A2950 RMK SLP993 DENSITY ALT 600FT
04:00
V
13 °C 9 mi 6.600 ft 260° 260° 12 - 17 kt METAR CYTZ 260800Z AUTO 26012G17KT 9SM BKN066 OVC100 13/10 A2951 RMK SLP994 DENSITY ALT 600FT
03:00
V
14 °C 9 mi - 260° 260° 11 - 17 kt METAR CYTZ 260700Z AUTO 26011G17KT 9SM FEW076 14/11 A2951 RMK SLP997 DENSITY ALT 600FT
02:00
V
14 °C 9 mi 10.000 ft 250° 250° 10 - 17 kt METAR CYTZ 260600Z AUTO 25010G17KT 9SM SCT071 OVC100 14/11 A2952 RMK SLP998 DENSITY ALT 700FT
01:27
V
14 °C 9 mi 7.100 ft 260° 260° 11 - 21 kt METAR CYTZ 260527Z AUTO 26011G21KT 9SM OVC071 14/11 A2952 RMK SLP000 DENSITY ALT 700FT
01:00
V
14 °C 9 mi 6.600 ft 240° 240° 10 - 16 kt METAR CYTZ 260500Z AUTO 24010G16KT 220V290 9SM -RA BKN066 OVC079 14/11 A2953 RMK SLP001 DENSITY ALT 700FT
00:59
V
14 °C 9 mi 6.600 ft 250° 250° 10 - 15 kt METAR CYTZ 260459Z AUTO 25010G15KT 9SM -RA BKN066 OVC079 14/11 A2953 RMK SLP001 DENSITY ALT 700FT
00:00
V
15 °C 9 mi 6.600 ft 260° 260° 11 - 18 kt METAR CYTZ 260400Z AUTO 26011G18KT 9SM OVC066 15/11 A2954 RMK SLP005 DENSITY ALT 800FT

25 de setembro de 2022

Hora Código Clima Temp. Visibilidade Tecto Vento METAR/SPECI
23:00
V
15 °C 9 mi 8.600 ft 240° 240° 11 - 20 kt METAR CYTZ 260300Z AUTO 24011G20KT 9SM OVC086 15/13 A2954 RMK SLP007 DENSITY ALT 800FT
22:00
V
15 °C 9 mi 9.100 ft 260° 260° 9 kt METAR CYTZ 260200Z AUTO 26009KT 240V300 9SM BKN091 OVC160 15/12 A2953 RMK SLP003 DENSITY ALT 800FT
21:00
V
16 °C 9 mi 7.100 ft 260° 260° 6 kt METAR CYTZ 260100Z AUTO 26006KT 9SM OVC071 16/13 A2955 RMK SLP008 DENSITY ALT 800FT
20:00
V
16 °C 9 mi 8.900 ft 290° 290° 7 kt METAR CYTZ 260000Z AUTO 29007KT 250V320 9SM SCT076 BKN089 OVC120 16/13 A2954 RMK SLP005 DENSITY ALT 900FT
19:45
V
16 °C 9 mi 9.200 ft 290° 290° 5 kt METAR CYTZ 252345Z AUTO 29005KT 250V350 9SM SCT076 BKN092 OVC120 16/13 A2954 RMK SLP004 DENSITY ALT 900FT
19:24
V
16 °C 9 mi 7.600 ft 290° 290° 5 kt METAR CYTZ 252324Z AUTO 29005KT 240V340 9SM -RA BKN076 OVC095 16/14 A2953 RMK SLP003 DENSITY ALT 900FT
19:00
V
16 °C 9 mi 7.100 ft 340° 340° 5 kt METAR CYTZ 252300Z AUTO 34005KT 240V360 9SM BKN071 OVC091 16/14 A2953 RMK SLP002 DENSITY ALT 900FT
18:30
V
16 °C 9 mi 8.200 ft 300° 300° 5 kt METAR CYTZ 252230Z AUTO 30005KT 240V010 9SM FEW015 SCT033 SCT060 OVC082 16/14 A2953 RMK SLP002 DENSITY ALT 900FT
18:26
V
16 °C 9 mi 6.000 ft 330° 330° 4 - 16 kt METAR CYTZ 252226Z AUTO 33004G16KT 240V360 9SM -RA SCT015 SCT031 BKN060 OVC083 16/14 A2953 RMK SLP002 DENSITY ALT 900FT
18:18
M
16 °C 9 mi 2.800 ft Var Var 9 - 18 kt METAR CYTZ 252218Z AUTO VRB09G18KT 9SM -TSRA SCT015 BKN028 BKN060 OVC085 16/15 A2953 RMK SLP001 DENSITY ALT 900FT
18:03
M
15 °C 9 mi 2.800 ft 080° 080° 7 kt METAR CYTZ 252203Z AUTO 08007KT 050V120 9SM TS FEW011 BKN028 BKN055 OVC079 15/14 A2952 RMK LTNG DIST N SLP998 DENSITY ALT 800FT
18:00
M
15 °C 9 mi 2.400 ft 100° 100° 3 kt METAR CYTZ 252200Z AUTO 10003KT 050V120 9SM -TSRA FEW009 BKN024 BKN032 OVC055 15/14 A2952 RMK LTNG DIST N SLP000 DENSITY ALT 800FT
17:49
V
15 °C 9 mi 4.800 ft 070° 070° 9 kt METAR CYTZ 252149Z AUTO 07009KT 040V110 9SM -TSRA FEW018 SCT035 BKN048 OVC076 15/14 A2951 RMK LTNG DIST N SLP997 DENSITY ALT 800FT
17:38
V
15 °C 9 mi 4.600 ft Var Var 6 kt METAR CYTZ 252138Z AUTO VRB06KT 9SM -RA FEW009 SCT021 BKN046 OVC055 15/14 A2952 RMK LTNG DIST N NW PRESRR SLP999 DENSITY ALT 800FT
17:21
V
15 °C 9 mi 4.600 ft 060° 060° 9 kt METAR CYTZ 252121Z AUTO 06009KT 050V110 9SM -RA BKN046 BKN055 OVC072 15/14 A2951 RMK LTNG DIST N SW NW SLP995 DENSITY ALT 800FT
17:05
V
15 °C 8 mi 6.600 ft 060° 060° 9 kt METAR CYTZ 252105Z AUTO 06009KT 050V130 8SM -RA VCTS SCT044 BKN066 OVC076 15/14 A2951 RMK LTNG DIST ALQDS SLP994 DENSITY ALT 800FT
17:01
V
15 °C 6 mi 7.100 ft 080° 080° 7 kt METAR CYTZ 252101Z AUTO 08007KT 050V130 6SM -RA BR SCT044 BKN071 OVC091 15/14 A2950 RMK LTNG DIST ALQDS SLP993 DENSITY ALT 800FT
16:50
V
15 °C 5 mi 8.000 ft 060° 060° 8 kt METAR CYTZ 252050Z AUTO 06008KT 050V120 5SM -RA BR FEW039 SCT069 BKN080 OVC092 15/14 A2950 RMK LTNG DIST S NW SLP992 DENSITY ALT 900FT
16:22
V
16 °C 9 mi 9.800 ft 090° 090° 8 kt METAR CYTZ 252022Z AUTO 09008KT 9SM -RA FEW055 BKN098 16/14 A2950 RMK LTNG DIST SW SLP990 DENSITY ALT 900FT
16:00
V
16 °C 9 mi - 090° 090° 9 kt METAR CYTZ 252000Z AUTO 09009KT 060V120 9SM FEW039 16/14 A2950 RMK LTNG DIST SW SLP990 DENSITY ALT 1000FT
15:18
M
17 °C 7 mi 2.800 ft 100° 100° 8 kt METAR CYTZ 251918Z AUTO 10008KT 060V120 7SM SCT016 SCT022 BKN028 BKN096 17/15 A2950 RMK LTNG DIST SW SLP992 DENSITY ALT 1100FT
15:00
M
17 °C 9 mi 2.400 ft 080° 080° 7 kt METAR CYTZ 251900Z AUTO 08007KT 050V120 9SM SCT016 BKN024 BKN096 17/14 A2951 RMK SLP993 DENSITY ALT 1000FT
14:37
M
16 °C 9 mi 1.900 ft 070° 070° 6 kt METAR CYTZ 251837Z AUTO 07006KT 050V110 9SM SCT014 BKN019 16/15 A2951 RMK SLP995 DENSITY ALT 1000FT
14:21
M
16 °C 9 mi 1.300 ft 080° 080° 6 kt METAR CYTZ 251821Z AUTO 08006KT 9SM -RA BKN013 OVC018 16/14 A2951 RMK SLP996 DENSITY ALT 900FT
14:00
M
16 °C 9 mi 1.300 ft 070° 070° 8 kt METAR CYTZ 251800Z AUTO 07008KT 050V120 9SM BKN013 OVC018 16/14 A2952 RMK SLP998 DENSITY ALT 900FT
13:45
M
16 °C 9 mi 1.300 ft 070° 070° 8 kt METAR CYTZ 251745Z AUTO 07008KT 050V110 9SM OVC013 16/15 A2952 RMK SLP999 DENSITY ALT 900FT
13:22
M
15 °C 9 mi 1.600 ft 070° 070° 8 kt METAR CYTZ 251722Z AUTO 07008KT 050V110 9SM -RA SCT010 BKN016 BKN050 OVC076 15/15 A2952 RMK SLP000 DENSITY ALT 900FT
13:00
V
15 °C 9 mi 5.500 ft 060° 060° 8 kt METAR CYTZ 251700Z AUTO 06008KT 040V110 9SM -RA FEW023 SCT035 BKN055 OVC073 15/15 A2952 RMK SLP998 DENSITY ALT 900FT
12:54
I
15 °C 3 mi 3.700 ft 060° 060° 7 kt METAR CYTZ 251654Z AUTO 06007KT 040V130 3SM -RA BR FEW006 BKN037 BKN055 OVC071 15/15 A2951 RMK SLP997 DENSITY ALT 900FT
Dados mais antigos

Nós e terceiros acompanhamos seu comportamento na internet em nosso site com cookies. Se você continuar, nós assumimos que você concorda com nossa política de cookies. Saiba mais